createdAt,value
2023-04-24T00:00:27.511Z,14.12
2023-04-24T00:02:58.234Z,14.11
2023-04-24T00:05:25.697Z,14.08
2023-04-24T00:07:53.849Z,14.05
2023-04-24T00:10:20.723Z,14.01
2023-04-24T00:12:47.546Z,13.96
2023-04-24T00:15:14.036Z,13.91
2023-04-24T00:17:40.634Z,13.88
2023-04-24T00:20:08.044Z,13.83
2023-04-24T00:22:34.792Z,13.76
2023-04-24T00:25:01.590Z,13.70
2023-04-24T00:27:28.355Z,13.65
2023-04-24T00:29:55.288Z,13.59
2023-04-24T00:32:21.806Z,13.53
2023-04-24T00:34:48.817Z,13.48
2023-04-24T00:37:15.554Z,13.45
2023-04-24T00:39:45.285Z,13.39
2023-04-24T00:42:12.809Z,13.30
2023-04-24T00:44:40.119Z,13.24
2023-04-24T00:47:06.998Z,13.17
2023-04-24T00:49:33.878Z,13.09
2023-04-24T00:52:01.292Z,13.01
2023-04-24T00:54:27.830Z,12.95
2023-04-24T00:56:54.466Z,12.90
2023-04-24T00:59:21.323Z,12.83
2023-04-24T01:01:48.081Z,12.80
2023-04-24T01:04:15.270Z,12.76
2023-04-24T01:06:44.401Z,12.71
2023-04-24T01:09:12.821Z,12.67
2023-04-24T01:11:39.393Z,12.65
2023-04-24T01:14:06.162Z,12.62
2023-04-24T01:16:32.708Z,12.60
2023-04-24T01:19:01.053Z,12.56
2023-04-24T01:21:31.389Z,12.51
2023-04-24T01:23:58.142Z,12.47
2023-04-24T01:26:26.633Z,12.43
2023-04-24T01:28:56.397Z,12.37
2023-04-24T01:31:23.822Z,12.32
2023-04-24T01:33:52.248Z,12.31
2023-04-24T01:36:19.117Z,12.28
2023-04-24T01:38:45.905Z,12.24
2023-04-24T01:41:14.269Z,12.20
2023-04-24T01:43:41.334Z,12.14
2023-04-24T01:46:08.225Z,12.09
2023-04-24T01:48:36.810Z,12.05
2023-04-24T01:51:03.580Z,12.04
2023-04-24T01:53:30.369Z,12.03
2023-04-24T01:55:57.162Z,11.99
2023-04-24T01:58:25.621Z,11.96
2023-04-24T02:00:52.228Z,11.92
2023-04-24T02:03:18.954Z,11.90
2023-04-24T02:05:46.363Z,11.88
2023-04-24T02:08:13.204Z,11.86
2023-04-24T02:10:39.630Z,11.83
2023-04-24T02:13:06.213Z,11.82
2023-04-24T02:15:33.076Z,11.80
2023-04-24T02:17:59.587Z,11.74
2023-04-24T02:20:26.223Z,11.70
2023-04-24T02:22:53.538Z,11.67
2023-04-24T02:25:20.506Z,11.64
2023-04-24T02:27:47.332Z,11.61
2023-04-24T02:30:14.079Z,11.59
2023-04-24T02:32:40.846Z,11.56
2023-04-24T02:35:11.506Z,11.52
2023-04-24T02:37:38.107Z,11.49
2023-04-24T02:40:07.145Z,11.46
2023-04-24T02:42:33.925Z,11.43
2023-04-24T02:45:00.725Z,11.40
2023-04-24T02:47:27.848Z,11.38
2023-04-24T02:49:54.687Z,11.36
2023-04-24T02:52:21.762Z,11.32
2023-04-24T02:54:48.342Z,11.28
2023-04-24T02:57:15.014Z,11.25
2023-04-24T02:59:42.771Z,11.21
2023-04-24T03:02:09.819Z,11.16
2023-04-24T03:04:36.523Z,11.14
2023-04-24T03:07:03.264Z,11.14
2023-04-24T03:09:29.709Z,11.13
2023-04-24T03:11:56.782Z,11.12
2023-04-24T03:14:25.112Z,11.09
2023-04-24T03:16:51.648Z,11.07
2023-04-24T03:19:18.312Z,11.06
2023-04-24T03:21:56.196Z,11.05
2023-04-24T03:24:23.604Z,11.00
2023-04-24T03:26:50.612Z,10.99
2023-04-24T03:29:37.098Z,10.99
2023-04-24T03:32:03.949Z,10.97
2023-04-24T03:34:30.735Z,10.94
2023-04-24T03:36:58.295Z,10.91
2023-04-24T03:39:26.249Z,10.88
2023-04-24T03:41:55.548Z,10.86
2023-04-24T03:44:27.306Z,10.84
2023-04-24T03:46:54.139Z,10.81
2023-04-24T03:49:23.084Z,10.79
2023-04-24T03:51:49.723Z,10.78
2023-04-24T03:54:25.010Z,10.75
2023-04-24T03:56:52.968Z,10.73
2023-04-24T03:59:20.158Z,10.70
2023-04-24T04:01:54.124Z,10.68
2023-04-24T04:04:21.172Z,10.66
2023-04-24T04:06:48.192Z,10.65
2023-04-24T04:09:14.883Z,10.63
2023-04-24T04:11:41.624Z,10.59
2023-04-24T04:14:08.163Z,10.57
2023-04-24T04:16:40.103Z,10.56
2023-04-24T04:19:07.394Z,10.53
2023-04-24T04:21:34.866Z,10.51
2023-04-24T04:24:10.920Z,10.48
2023-04-24T04:26:42.498Z,10.48
2023-04-24T04:29:11.894Z,10.48
2023-04-24T04:31:42.714Z,10.49
2023-04-24T04:34:13.707Z,10.49
2023-04-24T04:36:42.371Z,10.53
2023-04-24T04:39:22.284Z,10.56
2023-04-24T04:41:59.756Z,10.59
2023-04-24T04:44:31.890Z,10.60
2023-04-24T04:47:01.620Z,10.62
2023-04-24T04:49:31.994Z,10.61
2023-04-24T04:51:59.124Z,10.62
2023-04-24T04:54:29.834Z,10.63
2023-04-24T04:56:58.196Z,10.63
2023-04-24T04:59:24.808Z,10.64
2023-04-24T05:01:57.183Z,10.71
2023-04-24T05:04:24.217Z,10.81
2023-04-24T05:06:52.244Z,10.93
2023-04-24T05:09:19.617Z,11.08
2023-04-24T05:11:53.956Z,11.24
2023-04-24T05:14:22.873Z,11.36
2023-04-24T05:16:50.280Z,11.48
2023-04-24T05:19:19.805Z,11.60
2023-04-24T05:21:46.393Z,11.70
2023-04-24T05:24:12.908Z,11.79
2023-04-24T05:26:51.422Z,11.90
2023-04-24T05:29:23.292Z,11.98
2023-04-24T05:31:50.078Z,12.05
2023-04-24T05:34:17.820Z,12.11
2023-04-24T05:36:45.923Z,12.20
2023-04-24T05:39:12.762Z,12.27
2023-04-24T05:41:39.642Z,12.33
2023-04-24T05:44:06.345Z,12.40
2023-04-24T05:46:33.061Z,12.45
2023-04-24T05:48:59.872Z,12.52
2023-04-24T05:51:26.928Z,12.60
2023-04-24T05:53:53.818Z,12.65
2023-04-24T05:56:21.486Z,12.70
2023-04-24T05:58:50.120Z,12.73
2023-04-24T06:01:17.010Z,12.78
2023-04-24T06:03:47.524Z,12.86
2023-04-24T06:06:14.500Z,12.94
2023-04-24T06:08:43.706Z,12.98
2023-04-24T06:11:10.871Z,13.02
2023-04-24T06:13:39.120Z,13.05
2023-04-24T06:16:40.164Z,13.07
2023-04-24T06:19:18.317Z,13.10
2023-04-24T06:21:44.887Z,13.14
2023-04-24T06:24:11.693Z,13.20
2023-04-24T06:26:38.646Z,13.28
2023-04-24T06:29:08.694Z,13.40
2023-04-24T06:31:38.349Z,13.54
2023-04-24T06:34:05.160Z,13.88
2023-04-24T06:36:32.221Z,14.27
2023-04-24T06:39:00.194Z,14.69
2023-04-24T06:41:26.965Z,14.98
2023-04-24T06:43:53.671Z,15.31
2023-04-24T06:46:20.215Z,15.48
2023-04-24T06:48:46.721Z,15.57
2023-04-24T06:51:13.315Z,15.50
2023-04-24T06:53:39.979Z,15.46
2023-04-24T06:56:06.677Z,15.38
2023-04-24T06:58:33.420Z,15.19
2023-04-24T07:01:00.028Z,15.12
2023-04-24T07:03:27.372Z,15.02
2023-04-24T07:05:54.571Z,14.79
2023-04-24T07:08:23.122Z,14.69
2023-04-24T07:10:52.055Z,14.48
2023-04-24T07:13:18.859Z,14.42
2023-04-24T07:15:45.475Z,14.33
2023-04-24T07:18:12.144Z,14.29
2023-04-24T07:20:38.694Z,14.30
2023-04-24T07:23:05.668Z,14.38
2023-04-24T07:25:32.791Z,14.57
2023-04-24T07:27:59.680Z,14.87
2023-04-24T07:30:26.703Z,15.13
2023-04-24T07:32:53.584Z,14.99
2023-04-24T07:35:21.057Z,14.92
2023-04-24T07:37:47.888Z,14.74
2023-04-24T07:40:14.817Z,14.52
2023-04-24T07:42:41.484Z,14.29
2023-04-24T07:45:08.396Z,13.95
2023-04-24T07:47:35.478Z,13.69
2023-04-24T07:50:01.974Z,13.47
2023-04-24T07:52:28.453Z,13.28
2023-04-24T07:54:59.575Z,13.09
2023-04-24T07:57:26.303Z,12.97
2023-04-24T07:59:52.911Z,12.86
2023-04-24T08:02:19.550Z,12.88
2023-04-24T08:04:46.862Z,12.89
2023-04-24T08:07:15.044Z,12.95
2023-04-24T08:09:41.672Z,13.07
2023-04-24T08:12:08.479Z,13.26
2023-04-24T08:14:35.009Z,13.43
2023-04-24T08:17:02.419Z,13.56
2023-04-24T08:19:28.992Z,13.72
2023-04-24T08:21:55.854Z,13.88
2023-04-24T08:24:23.252Z,14.06
2023-04-24T08:26:51.355Z,14.16
2023-04-24T08:29:17.980Z,14.23
2023-04-24T08:31:44.559Z,14.33
2023-04-24T08:34:11.550Z,14.40
2023-04-24T08:36:46.646Z,14.45
2023-04-24T08:39:14.446Z,14.48
2023-04-24T08:41:44.088Z,14.47
2023-04-24T08:44:11.711Z,14.57
2023-04-24T08:46:38.693Z,14.81
2023-04-24T08:49:06.431Z,14.71
2023-04-24T08:51:33.019Z,14.68
2023-04-24T08:53:59.651Z,14.63
2023-04-24T08:56:27.059Z,14.86
2023-04-24T08:58:54.962Z,15.16
2023-04-24T09:01:21.951Z,15.34
2023-04-24T09:03:52.716Z,15.32
2023-04-24T09:06:20.507Z,15.09
2023-04-24T09:08:51.019Z,14.77
2023-04-24T09:11:17.979Z,14.55
2023-04-24T09:13:44.634Z,14.35
2023-04-24T09:16:11.492Z,14.27
2023-04-24T09:18:38.063Z,14.22
2023-04-24T09:21:12.056Z,14.23
2023-04-24T09:23:39.627Z,14.30
2023-04-24T09:26:06.146Z,14.44
2023-04-24T09:28:37.020Z,14.50
2023-04-24T09:31:18.500Z,14.39
2023-04-24T09:33:56.466Z,14.37
2023-04-24T09:36:38.610Z,14.56
2023-04-24T09:39:12.142Z,14.82
2023-04-24T09:41:53.082Z,14.91
2023-04-24T09:44:23.892Z,15.06
2023-04-24T09:46:52.768Z,14.96
2023-04-24T09:49:27.045Z,14.86
2023-04-24T09:52:04.378Z,14.79
2023-04-24T09:54:30.974Z,14.78
2023-04-24T09:56:58.014Z,14.72
2023-04-24T09:59:26.430Z,14.83
2023-04-24T10:01:53.392Z,14.96
2023-04-24T10:04:27.654Z,14.98
2023-04-24T10:06:57.014Z,14.94
2023-04-24T10:09:25.739Z,14.93
2023-04-24T10:11:54.416Z,14.96
2023-04-24T10:14:26.222Z,15.03
2023-04-24T10:16:56.048Z,15.19
2023-04-24T10:19:26.835Z,15.32
2023-04-24T10:21:54.049Z,15.34
2023-04-24T10:24:22.222Z,15.40
2023-04-24T10:26:49.580Z,15.43
2023-04-24T10:29:18.883Z,15.48
2023-04-24T10:31:48.856Z,15.60
2023-04-24T10:34:18.666Z,15.54
2023-04-24T10:36:55.820Z,15.56
2023-04-24T10:39:27.957Z,15.67
2023-04-24T10:41:58.706Z,15.87
2023-04-24T10:44:25.819Z,16.12
2023-04-24T10:46:56.807Z,16.26
2023-04-24T10:49:31.452Z,16.25
2023-04-24T10:52:02.626Z,16.06
2023-04-24T10:54:50.437Z,15.86
2023-04-24T10:57:20.394Z,15.77
2023-04-24T10:59:48.591Z,15.67
2023-04-24T11:02:16.472Z,15.50
2023-04-24T11:04:44.134Z,15.46
2023-04-24T11:07:11.914Z,15.60
2023-04-24T11:09:41.478Z,15.76
2023-04-24T11:12:12.369Z,15.76
2023-04-24T11:15:00.744Z,15.86
2023-04-24T11:17:39.228Z,16.25
2023-04-24T11:20:22.860Z,16.55
2023-04-24T11:22:58.854Z,16.72
2023-04-24T11:25:26.056Z,16.69
2023-04-24T11:28:05.021Z,16.70
2023-04-24T11:30:33.266Z,16.84
2023-04-24T11:33:05.586Z,16.84
2023-04-24T11:35:39.980Z,16.97
2023-04-24T11:38:23.239Z,17.09
2023-04-24T11:40:51.014Z,17.23
2023-04-24T11:43:20.268Z,17.23
2023-04-24T11:45:49.898Z,17.33
2023-04-24T11:48:22.554Z,17.38
2023-04-24T11:50:50.350Z,17.38
2023-04-24T11:53:16.843Z,17.21
2023-04-24T11:55:43.507Z,17.13
2023-04-24T11:58:09.945Z,17.24
2023-04-24T12:00:36.695Z,17.36
2023-04-24T12:03:11.269Z,17.41
2023-04-24T12:05:39.672Z,17.22
2023-04-24T12:08:06.352Z,17.17
2023-04-24T12:10:34.157Z,17.09
2023-04-24T12:13:01.591Z,17.32
2023-04-24T12:15:28.533Z,17.63
2023-04-24T12:17:57.064Z,17.74
2023-04-24T12:20:32.274Z,17.87
2023-04-24T12:23:00.898Z,17.93
2023-04-24T12:25:29.582Z,18.06
2023-04-24T12:28:17.821Z,17.91
2023-04-24T12:30:49.827Z,17.62
2023-04-24T12:33:20.939Z,17.25
2023-04-24T12:35:49.510Z,17.06
2023-04-24T12:38:17.315Z,16.89
2023-04-24T12:40:44.568Z,16.82
2023-04-24T12:43:17.006Z,16.85
2023-04-24T12:45:43.596Z,16.82
2023-04-24T12:48:10.589Z,16.73
2023-04-24T12:50:37.449Z,16.72
2023-04-24T12:53:03.948Z,16.78
2023-04-24T12:55:30.587Z,16.98
2023-04-24T12:57:57.380Z,17.16
2023-04-24T13:00:24.328Z,17.11
2023-04-24T13:02:51.313Z,17.03
2023-04-24T13:05:18.114Z,16.76
2023-04-24T13:07:45.171Z,16.40
2023-04-24T13:10:11.849Z,16.34
2023-04-24T13:12:38.581Z,16.49
2023-04-24T13:15:05.867Z,16.45
2023-04-24T13:17:32.404Z,16.29
2023-04-24T13:19:59.088Z,16.11
2023-04-24T13:22:25.954Z,15.96
2023-04-24T13:24:52.563Z,15.72
2023-04-24T13:27:19.308Z,15.45
2023-04-24T13:29:46.455Z,15.10
2023-04-24T13:32:13.762Z,15.02
2023-04-24T13:34:40.605Z,14.88
2023-04-24T13:37:07.593Z,14.84
2023-04-24T13:39:34.478Z,14.83
2023-04-24T13:42:03.243Z,14.82
2023-04-24T13:44:31.112Z,14.90
2023-04-24T13:46:59.592Z,15.07
2023-04-24T13:49:27.680Z,15.05
2023-04-24T13:51:55.718Z,14.90
2023-04-24T13:54:24.222Z,14.99
2023-04-24T13:56:51.404Z,14.93
2023-04-24T13:59:17.894Z,14.93
2023-04-24T14:01:46.339Z,15.21
2023-04-24T14:04:13.690Z,15.23
2023-04-24T14:06:40.447Z,14.77
2023-04-24T14:09:08.049Z,14.40
2023-04-24T14:11:35.552Z,14.31
2023-04-24T14:14:02.434Z,14.24
2023-04-24T14:16:29.805Z,14.18
2023-04-24T14:18:57.204Z,13.88
2023-04-24T14:21:23.794Z,13.35
2023-04-24T14:23:50.501Z,13.12
2023-04-24T14:26:17.078Z,12.84
2023-04-24T14:28:43.641Z,12.65
2023-04-24T14:31:10.944Z,12.63
2023-04-24T14:33:37.542Z,12.67
2023-04-24T14:36:05.620Z,12.77
2023-04-24T14:38:32.506Z,12.59
2023-04-24T14:41:06.829Z,12.40
2023-04-24T14:43:36.045Z,12.21
2023-04-24T14:46:03.553Z,12.06
2023-04-24T14:48:30.358Z,11.98
2023-04-24T14:50:56.934Z,11.90
2023-04-24T14:53:23.898Z,11.71
2023-04-24T14:55:50.482Z,11.65
2023-04-24T14:58:17.235Z,11.48
2023-04-24T15:00:44.169Z,11.35
2023-04-24T15:03:11.384Z,11.30
2023-04-24T15:05:38.485Z,11.30
2023-04-24T15:08:05.656Z,11.31
2023-04-24T15:10:32.248Z,11.33
2023-04-24T15:12:59.095Z,11.37
2023-04-24T15:15:25.925Z,11.45
2023-04-24T15:17:52.485Z,11.42
2023-04-24T15:20:19.385Z,11.28
2023-04-24T15:22:45.999Z,11.13
2023-04-24T15:25:12.810Z,10.98
2023-04-24T15:27:43.974Z,10.81
2023-04-24T15:30:11.527Z,10.63
2023-04-24T15:32:39.836Z,10.50
2023-04-24T15:35:09.228Z,10.32
2023-04-24T15:37:37.808Z,10.16
2023-04-24T15:40:06.612Z,10.13
2023-04-24T15:42:33.269Z,10.28
2023-04-24T15:45:00.127Z,11.10
2023-04-24T15:47:27.000Z,11.01
2023-04-24T15:49:55.158Z,11.24
2023-04-24T15:52:22.542Z,11.25
2023-04-24T15:54:49.492Z,10.96
2023-04-24T15:57:16.355Z,10.88
2023-04-24T15:59:42.940Z,10.66
2023-04-24T16:02:12.464Z,10.50
2023-04-24T16:04:39.972Z,10.48
2023-04-24T16:07:06.668Z,10.42
2023-04-24T16:09:33.256Z,10.45
2023-04-24T16:11:59.846Z,10.50
2023-04-24T16:14:27.075Z,10.42
2023-04-24T16:16:55.646Z,10.47
2023-04-24T16:19:22.363Z,10.77
2023-04-24T16:21:49.101Z,11.08
2023-04-24T16:24:15.619Z,11.77
2023-04-24T16:26:42.296Z,12.37
2023-04-24T16:29:08.984Z,12.75
2023-04-24T16:31:35.853Z,12.89
2023-04-24T16:34:02.466Z,12.95
2023-04-24T16:36:29.327Z,12.78
2023-04-24T16:38:56.058Z,12.43
2023-04-24T16:41:22.898Z,12.18
2023-04-24T16:43:49.682Z,12.02
2023-04-24T16:46:16.689Z,11.93
2023-04-24T16:48:43.219Z,11.85
2023-04-24T16:51:09.864Z,11.74
2023-04-24T16:53:37.094Z,11.61
2023-04-24T16:56:04.921Z,11.52
2023-04-24T16:58:32.119Z,11.46
2023-04-24T17:00:58.845Z,11.35
2023-04-24T17:03:25.643Z,11.19
2023-04-24T17:05:52.745Z,11.13
2023-04-24T17:08:19.899Z,11.08
2023-04-24T17:10:46.728Z,11.02
2023-04-24T17:13:14.422Z,10.98
2023-04-24T17:15:42.225Z,10.96
2023-04-24T17:18:08.989Z,10.95
2023-04-24T17:20:35.590Z,10.91
2023-04-24T17:23:02.215Z,10.83
2023-04-24T17:25:29.370Z,10.80
2023-04-24T17:27:55.955Z,10.78
2023-04-24T17:30:24.926Z,10.72
2023-04-24T17:32:51.467Z,10.63
2023-04-24T17:35:18.104Z,10.57
2023-04-24T17:37:44.612Z,10.53
2023-04-24T17:40:11.990Z,10.51
2023-04-24T17:42:41.429Z,10.49
2023-04-24T17:45:08.798Z,10.49
2023-04-24T17:47:35.534Z,10.48
2023-04-24T17:50:02.552Z,10.45
2023-04-24T17:52:29.095Z,10.44
2023-04-24T17:54:55.662Z,10.42
2023-04-24T17:57:22.979Z,10.41
2023-04-24T17:59:49.603Z,10.37
2023-04-24T18:02:16.593Z,10.35
2023-04-24T18:04:43.838Z,10.35
2023-04-24T18:07:11.639Z,10.32
2023-04-24T18:09:38.359Z,10.29
2023-04-24T18:12:05.483Z,10.27
2023-04-24T18:14:32.135Z,10.25
2023-04-24T18:16:58.788Z,10.25
2023-04-24T18:19:25.651Z,10.24
2023-04-24T18:21:52.462Z,10.22
2023-04-24T18:24:19.765Z,10.20
2023-04-24T18:26:46.235Z,10.21
2023-04-24T18:29:12.779Z,10.22
2023-04-24T18:31:39.663Z,10.19
2023-04-24T18:34:06.564Z,10.19
2023-04-24T18:36:35.247Z,10.17
2023-04-24T18:39:02.261Z,10.14
2023-04-24T18:41:28.740Z,10.11
2023-04-24T18:43:58.343Z,10.07
2023-04-24T18:46:26.637Z,10.01
2023-04-24T18:48:53.216Z,9.96
2023-04-24T18:51:19.952Z,9.89
2023-04-24T18:53:46.416Z,9.82
2023-04-24T18:56:13.165Z,9.79
2023-04-24T18:58:44.250Z,9.75
2023-04-24T19:01:11.069Z,9.74
2023-04-24T19:03:37.941Z,9.72
2023-04-24T19:06:04.611Z,9.67
2023-04-24T19:08:31.199Z,9.69
2023-04-24T19:10:57.769Z,9.69
2023-04-24T19:13:24.693Z,9.67
2023-04-24T19:15:51.530Z,9.65
2023-04-24T19:18:18.200Z,9.59
2023-04-24T19:20:45.625Z,9.53
2023-04-24T19:23:12.258Z,9.46
2023-04-24T19:25:38.894Z,9.38
2023-04-24T19:28:05.809Z,9.36
2023-04-24T19:30:32.356Z,9.41
2023-04-24T19:32:58.964Z,9.47
2023-04-24T19:35:25.626Z,9.52
2023-04-24T19:37:52.256Z,9.54
2023-04-24T19:40:18.773Z,9.53
2023-04-24T19:42:45.934Z,9.50
2023-04-24T19:45:13.029Z,9.46
2023-04-24T19:47:39.820Z,9.42
2023-04-24T19:50:07.444Z,9.31
2023-04-24T19:52:34.034Z,9.19
2023-04-24T19:55:00.687Z,9.12
2023-04-24T19:57:27.506Z,9.10
2023-04-24T19:59:54.064Z,9.06
2023-04-24T20:02:20.840Z,9.01
2023-04-24T20:04:47.486Z,8.96
2023-04-24T20:07:14.120Z,8.90
2023-04-24T20:09:40.797Z,8.88
2023-04-24T20:12:07.758Z,8.88
2023-04-24T20:14:34.486Z,8.90
2023-04-24T20:17:02.689Z,8.93
2023-04-24T20:19:29.279Z,8.96
2023-04-24T20:21:55.924Z,8.97
2023-04-24T20:24:22.550Z,8.95
2023-04-24T20:26:49.551Z,8.93
2023-04-24T20:29:16.475Z,8.90
2023-04-24T20:31:43.041Z,8.88
2023-04-24T20:34:09.756Z,8.87
2023-04-24T20:36:37.146Z,8.88
2023-04-24T20:39:06.292Z,8.90
2023-04-24T20:41:33.991Z,8.92
2023-04-24T20:44:00.893Z,8.96
2023-04-24T20:46:27.454Z,8.97
2023-04-24T20:48:53.987Z,8.97
2023-04-24T20:51:20.900Z,8.98
2023-04-24T20:53:49.465Z,8.97
2023-04-24T20:56:16.859Z,8.92
2023-04-24T20:58:46.901Z,8.85
2023-04-24T21:01:15.262Z,8.81
2023-04-24T21:03:42.190Z,8.80
2023-04-24T21:06:09.869Z,8.78
2023-04-24T21:08:37.743Z,8.73
2023-04-24T21:11:05.171Z,8.66
2023-04-24T21:13:31.911Z,8.60
2023-04-24T21:15:58.642Z,8.56
2023-04-24T21:18:26.187Z,8.55
2023-04-24T21:20:53.622Z,8.56
2023-04-24T21:23:21.811Z,8.58
2023-04-24T21:25:48.434Z,8.58
2023-04-24T21:28:15.234Z,8.61
2023-04-24T21:30:42.324Z,8.61
2023-04-24T21:33:08.966Z,8.63
2023-04-24T21:35:35.637Z,8.66
2023-04-24T21:38:02.070Z,8.69
2023-04-24T21:40:29.444Z,8.71
2023-04-24T21:42:56.264Z,8.74
2023-04-24T21:45:23.051Z,8.76
2023-04-24T21:47:49.734Z,8.77
2023-04-24T21:50:16.493Z,8.79
2023-04-24T21:52:43.135Z,8.82
2023-04-24T21:55:09.946Z,8.84
2023-04-24T21:57:36.664Z,8.85
2023-04-24T22:00:06.461Z,8.88
2023-04-24T22:02:33.329Z,8.87
2023-04-24T22:05:03.420Z,8.90
2023-04-24T22:07:30.898Z,8.91
2023-04-24T22:09:57.453Z,8.93
2023-04-24T22:12:24.003Z,8.94
2023-04-24T22:14:50.907Z,8.95
2023-04-24T22:17:17.520Z,8.96
2023-04-24T22:19:52.998Z,8.96
2023-04-24T22:22:19.632Z,8.96
2023-04-24T22:24:46.246Z,8.96
2023-04-24T22:27:12.751Z,8.96
2023-04-24T22:29:39.382Z,8.97
2023-04-24T22:32:05.884Z,8.96
2023-04-24T22:34:32.768Z,8.95
2023-04-24T22:36:59.368Z,8.95
2023-04-24T22:39:26.060Z,8.92
2023-04-24T22:41:52.616Z,8.87
2023-04-24T22:44:19.116Z,8.83
2023-04-24T22:46:47.685Z,8.82
2023-04-24T22:49:16.784Z,8.80
2023-04-24T22:51:43.819Z,8.80
2023-04-24T22:54:10.615Z,8.79
2023-04-24T22:56:37.939Z,8.80
2023-04-24T22:59:04.800Z,8.80
2023-04-24T23:01:31.708Z,8.81
2023-04-24T23:03:58.624Z,8.84
2023-04-24T23:06:27.079Z,8.86
2023-04-24T23:08:53.764Z,8.87
2023-04-24T23:11:22.042Z,8.89
2023-04-24T23:13:49.694Z,8.91
2023-04-24T23:16:16.714Z,8.93
2023-04-24T23:18:43.222Z,8.95
2023-04-24T23:21:09.752Z,8.92
2023-04-24T23:23:36.398Z,8.90
2023-04-24T23:26:02.988Z,8.91
2023-04-24T23:28:29.724Z,8.88
2023-04-24T23:30:56.325Z,8.87
2023-04-24T23:33:23.343Z,8.84
2023-04-24T23:35:50.170Z,8.84
2023-04-24T23:38:16.966Z,8.84
2023-04-24T23:40:43.400Z,8.82
2023-04-24T23:43:09.872Z,8.81
2023-04-24T23:45:36.856Z,8.80
2023-04-24T23:48:04.539Z,8.78
2023-04-24T23:50:31.240Z,8.77
2023-04-24T23:52:57.869Z,8.76
2023-04-24T23:55:24.572Z,8.76
2023-04-24T23:57:51.361Z,8.76
